Date,TemperatureHighF,TemperatureAvgF,TemperatureLowF,DewpointHighF,DewpointAvgF,DewpointLowF,HumidityHigh,HumidityAvg,HumidityLow,PressureMaxIn,PressureMinIn,WindSpeedMaxMPH,WindSpeedAvgMPH,GustSpeedMaxMPH,PrecipitationSumIn
2013-1-1,24,12,3,-100,-100,-100,0,0,100,0.00,40.00,0,-999,0,0.00
2013-1-2,24,18,14,-100,-100,-100,0,0,100,0.00,40.00,0,-999,0,0.00
2013-1-3,33,12,2,-100,-100,-100,0,0,100,0.00,40.00,0,-999,0,0.00
2013-1-4,42,24,10,-100,-100,-100,0,0,100,0.00,40.00,0,-999,0,0.00
2013-1-5,38,23,13,-100,-100,-100,0,0,100,0.00,40.00,0,-999,0,0.00
2013-1-6,42,22,4,-100,-100,-100,0,0,100,0.00,40.00,0,-999,0,0.00
2013-1-7,49,29,18,-100,-100,-100,0,0,100,0.00,40.00,0,-999,0,0.00
2013-1-8,47,34,24,-100,-100,-100,0,0,100,0.00,40.00,0,-999,0,0.00
2013-1-9,50,28,19,-100,-100,-100,0,0,100,0.00,40.00,0,-999,0,0.00
2013-1-10,38,23,14,-100,-100,-100,0,0,100,0.00,40.00,0,-999,0,0.00
2013-1-11,32,17,2,-100,-100,-100,0,0,100,0.00,40.00,0,-999,0,0.00
2013-1-12,15,3,-5,-100,-100,-100,0,0,100,0.00,40.00,0,-999,0,0.00
2013-1-13,9,-1,-10,-100,-100,-100,0,0,100,0.00,40.00,0,-999,0,0.00
2013-1-14,14,0,-8,-100,-100,-100,0,0,100,0.00,40.00,0,-999,0,0.00
2013-1-15,29,12,-9,-100,-100,-100,0,0,100,0.00,40.00,0,-999,0,0.00
2013-1-16,47,32,25,-100,-100,-100,0,0,100,0.00,40.00,0,-999,0,0.00
2013-1-17,47,24,13,-100,-100,-100,0,0,100,0.00,40.00,0,-999,0,0.00
2013-1-18,53,36,25,-100,-100,-100,0,0,100,0.00,40.00,0,-999,0,0.00
2013-1-19,52,35,24,-100,-100,-100,0,0,100,0.00,40.00,0,-999,0,0.00
2013-1-20,41,25,9,-100,-100,-100,0,0,100,0.00,40.00,0,-999,0,0.00
2013-1-21,50,27,9,-100,-100,-100,0,0,100,0.00,40.00,0,-999,0,0.00
2013-1-22,51,32,20,-100,-100,-100,0,0,100,0.00,40.00,0,-999,0,0.00
2013-1-23,58,41,24,-100,-100,-100,0,0,100,0.00,40.00,0,-999,0,0.00
2013-1-24,58,41,25,-100,-100,-100,0,0,100,0.00,40.00,0,-999,0,0.00
2013-1-25,54,37,26,-100,-100,-100,0,0,100,0.00,40.00,0,-999,0,0.00
2013-1-26,50,35,22,-100,-100,-100,0,0,100,0.00,40.00,0,-999,0,0.00
2013-1-27,51,38,29,-100,-100,-100,0,0,100,0.00,40.00,0,-999,0,0.00
2013-1-28,43,28,22,-100,-100,-100,0,0,100,0.00,40.00,0,-999,0,0.00
2013-1-29,25,20,14,-100,-100,-100,0,0,100,0.00,40.00,0,-999,0,0.00
2013-1-30,32,24,8,-100,-100,-100,0,0,100,0.00,40.00,0,-999,0,0.00
2013-1-31,34,26,17,-100,-100,-100,0,0,100,0.00,40.00,0,-999,0,0.00